createdAt,value
2017-06-01T00:00:04.500Z,99.99
2017-06-01T00:01:04.807Z,99.99
2017-06-01T00:02:04.788Z,99.99
2017-06-01T00:03:04.467Z,99.99
2017-06-01T00:04:04.453Z,99.99
2017-06-01T00:05:04.437Z,99.99
2017-06-01T00:06:04.743Z,99.99
2017-06-01T00:07:04.419Z,99.99
2017-06-01T00:08:04.724Z,99.99
2017-06-01T00:09:04.723Z,99.99
2017-06-01T00:10:04.383Z,99.99
2017-06-01T00:11:04.685Z,99.99
2017-06-01T00:12:04.673Z,99.99
2017-06-01T00:13:04.665Z,99.99
2017-06-01T00:14:04.535Z,99.99
2017-06-01T00:15:04.638Z,99.99
2017-06-01T00:16:04.626Z,99.99
2017-06-01T00:17:04.318Z,99.99
2017-06-01T00:18:04.289Z,99.99
2017-06-01T00:19:04.587Z,99.99
2017-06-01T00:20:04.268Z,99.99
2017-06-01T00:21:04.567Z,99.99
2017-06-01T00:22:04.553Z,99.99
2017-06-01T00:23:04.543Z,99.99
2017-06-01T00:24:04.213Z,99.99
2017-06-01T00:25:04.202Z,99.99
2017-06-01T00:26:04.504Z,99.99
2017-06-01T00:27:04.495Z,99.99
2017-06-01T00:28:04.167Z,99.99
2017-06-01T00:29:04.466Z,99.99
2017-06-01T00:30:04.457Z,99.99
2017-06-01T00:31:04.129Z,99.99
2017-06-01T00:32:04.432Z,99.99
2017-06-01T00:33:04.423Z,99.99
2017-06-01T00:34:04.411Z,99.99
2017-06-01T00:35:04.408Z,99.99
2017-06-01T00:36:04.381Z,99.99
2017-06-01T00:37:04.369Z,99.99
2017-06-01T00:38:04.359Z,99.99
2017-06-01T00:39:04.032Z,99.99
2017-06-01T00:40:04.337Z,99.99
2017-06-01T00:41:04.007Z,99.99
2017-06-01T00:42:04.310Z,99.99
2017-06-01T00:43:04.303Z,99.99
2017-06-01T00:44:03.972Z,99.99
2017-06-01T00:45:03.963Z,99.99
2017-06-01T00:46:04.264Z,99.99
2017-06-01T00:47:04.246Z,99.99
2017-06-01T00:48:04.234Z,99.99
2017-06-01T00:49:03.963Z,99.99
2017-06-01T00:50:04.212Z,99.99
2017-06-01T00:51:04.204Z,99.99
2017-06-01T00:52:04.191Z,99.99
2017-06-01T00:53:04.174Z,99.99
2017-06-01T00:54:04.164Z,99.99
2017-06-01T00:55:03.834Z,99.99
2017-06-01T00:56:04.137Z,99.99
2017-06-01T00:57:04.128Z,99.99
2017-06-01T00:58:03.796Z,99.99
2017-06-01T00:59:03.834Z,99.99
2017-06-01T01:00:03.774Z,99.99
2017-06-01T01:01:03.766Z,99.99
2017-06-01T01:02:03.746Z,99.99
2017-06-01T01:03:03.738Z,99.99
2017-06-01T01:04:04.040Z,99.99
2017-06-01T01:05:04.027Z,99.99
2017-06-01T01:06:03.699Z,99.99
2017-06-01T01:07:03.998Z,99.99
2017-06-01T01:08:03.981Z,99.99
2017-06-01T01:09:03.971Z,99.99
2017-06-01T01:10:03.642Z,99.99
2017-06-01T01:11:03.632Z,99.99
2017-06-01T01:12:03.618Z,99.99
2017-06-01T01:13:03.610Z,99.99
2017-06-01T01:14:03.907Z,99.99
2017-06-01T01:15:03.897Z,99.99
2017-06-01T01:16:03.882Z,99.99
2017-06-01T01:17:03.558Z,99.99
2017-06-01T01:18:03.542Z,99.99
2017-06-01T01:19:03.872Z,99.99
2017-06-01T01:20:03.834Z,99.99
2017-06-01T01:21:03.506Z,99.99
2017-06-01T01:22:03.808Z,99.99
2017-06-01T01:23:03.793Z,99.99
2017-06-01T01:24:03.783Z,99.99
2017-06-01T01:25:03.766Z,99.99
2017-06-01T01:26:03.444Z,99.99
2017-06-01T01:27:03.742Z,99.99
2017-06-01T01:28:03.729Z,99.99
2017-06-01T01:29:03.400Z,99.99
2017-06-01T01:30:03.389Z,99.99
2017-06-01T01:31:03.690Z,99.99
2017-06-01T01:32:03.673Z,99.99
2017-06-01T01:33:03.351Z,99.99
2017-06-01T01:34:03.339Z,99.99
2017-06-01T01:35:03.639Z,99.99
2017-06-01T01:36:03.310Z,99.99
2017-06-01T01:37:03.612Z,99.99
2017-06-01T01:38:03.598Z,99.99
2017-06-01T01:39:03.271Z,99.99
2017-06-01T01:40:03.571Z,99.99
2017-06-01T01:41:03.561Z,99.99
2017-06-01T01:42:03.549Z,99.99
2017-06-01T01:43:03.220Z,99.99
2017-06-01T01:44:03.209Z,99.99
2017-06-01T01:45:03.502Z,99.99
2017-06-01T01:46:03.179Z,99.99
2017-06-01T01:47:03.481Z,99.99
2017-06-01T01:48:03.467Z,99.99
2017-06-01T01:49:03.452Z,99.99
2017-06-01T01:50:03.439Z,99.99
2017-06-01T01:51:03.427Z,99.99
2017-06-01T01:52:03.100Z,99.99
2017-06-01T01:53:03.402Z,99.99
2017-06-01T01:54:03.392Z,99.99
2017-06-01T01:55:03.377Z,99.99
2017-06-01T01:56:03.363Z,99.99
2017-06-01T01:57:03.038Z,99.99
2017-06-01T01:58:03.023Z,99.99
2017-06-01T01:59:03.326Z,99.99
2017-06-01T02:00:02.996Z,99.99
2017-06-01T02:01:03.296Z,99.99
2017-06-01T02:02:03.283Z,99.99
2017-06-01T02:03:02.955Z,99.99
2017-06-01T02:04:03.257Z,99.99
2017-06-01T02:05:02.928Z,99.99
2017-06-01T02:06:02.917Z,99.99
2017-06-01T02:07:03.216Z,99.99
2017-06-01T02:08:02.890Z,99.99
2017-06-01T02:09:02.876Z,99.99
2017-06-01T02:10:02.861Z,99.99
2017-06-01T02:11:03.161Z,99.99
2017-06-01T02:12:02.837Z,99.99
2017-06-01T02:13:03.139Z,99.99
2017-06-01T02:14:03.526Z,99.99
2017-06-01T02:15:03.112Z,99.99
2017-06-01T02:16:02.784Z,99.99
2017-06-01T02:17:02.772Z,99.99
2017-06-01T02:18:03.070Z,99.99
2017-06-01T02:19:02.748Z,99.99
2017-06-01T02:20:03.041Z,99.99
2017-06-01T02:21:02.715Z,99.99
2017-06-01T02:22:03.018Z,99.99
2017-06-01T02:23:02.685Z,99.99
2017-06-01T02:24:03.015Z,99.99
2017-06-01T02:25:03.036Z,99.99
2017-06-01T02:26:02.962Z,99.99
2017-06-01T02:27:02.632Z,99.99
2017-06-01T02:28:02.620Z,99.99
2017-06-01T02:29:02.918Z,99.99
2017-06-01T02:30:02.955Z,99.99
2017-06-01T02:31:02.896Z,99.99
2017-06-01T02:32:02.563Z,99.99
2017-06-01T02:33:02.863Z,99.99
2017-06-01T02:34:02.871Z,99.99
2017-06-01T02:35:02.839Z,99.99
2017-06-01T02:36:02.821Z,99.99
2017-06-01T02:37:02.809Z,99.99
2017-06-01T02:38:02.485Z,99.99
2017-06-01T02:39:02.783Z,99.99
2017-06-01T02:40:02.765Z,99.99
2017-06-01T02:41:02.755Z,99.99
2017-06-01T02:42:02.765Z,99.99
2017-06-01T02:43:02.412Z,99.99
2017-06-01T02:44:02.403Z,99.99
2017-06-01T02:45:02.701Z,99.99
2017-06-01T02:46:02.686Z,99.99
2017-06-01T02:47:02.673Z,99.99
2017-06-01T02:48:02.659Z,99.99
2017-06-01T02:49:02.645Z,99.99
2017-06-01T02:50:02.629Z,99.99
2017-06-01T02:51:02.614Z,99.99
2017-06-01T02:52:02.601Z,99.99
2017-06-01T02:53:02.594Z,99.99
2017-06-01T02:54:02.576Z,99.99
2017-06-01T02:55:02.560Z,99.99
2017-06-01T02:56:02.547Z,99.99
2017-06-01T02:57:02.220Z,99.99
2017-06-01T02:58:02.519Z,99.99
2017-06-01T02:59:02.509Z,99.99
2017-06-01T03:00:02.489Z,99.99
2017-06-01T03:01:02.176Z,99.99
2017-06-01T03:02:02.465Z,99.99
2017-06-01T03:03:02.448Z,99.99
2017-06-01T03:04:02.440Z,99.99
2017-06-01T03:05:02.424Z,99.99
2017-06-01T03:06:02.407Z,99.99
2017-06-01T03:07:02.088Z,99.99
2017-06-01T03:08:02.065Z,99.99
2017-06-01T03:09:02.369Z,99.99
2017-06-01T03:10:02.351Z,99.99
2017-06-01T03:11:02.341Z,99.99
2017-06-01T03:12:02.010Z,99.99
2017-06-01T03:13:02.315Z,99.99
2017-06-01T03:14:02.498Z,99.99
2017-06-01T03:15:02.342Z,99.99
2017-06-01T03:16:02.281Z,99.99
2017-06-01T03:17:02.262Z,99.99
2017-06-01T03:18:01.931Z,99.99
2017-06-01T03:19:02.234Z,99.99
2017-06-01T03:20:01.948Z,99.99
2017-06-01T03:21:01.882Z,99.99
2017-06-01T03:22:02.185Z,99.99
2017-06-01T03:23:02.181Z,99.99
2017-06-01T03:24:01.842Z,99.99
2017-06-01T03:25:02.155Z,99.99
2017-06-01T03:26:02.129Z,99.99
2017-06-01T03:27:02.113Z,99.99
2017-06-01T03:28:02.103Z,99.99
2017-06-01T03:29:02.085Z,99.99
2017-06-01T03:30:01.757Z,99.99
2017-06-01T03:31:01.748Z,99.99
2017-06-01T03:32:01.729Z,99.99
2017-06-01T03:33:02.032Z,99.99
2017-06-01T03:34:02.021Z,99.99
2017-06-01T03:35:01.999Z,99.99
2017-06-01T03:36:01.990Z,99.99
2017-06-01T03:37:01.976Z,99.99
2017-06-01T03:38:01.963Z,99.99
2017-06-01T03:39:01.631Z,99.99
2017-06-01T03:40:01.618Z,99.99
2017-06-01T03:41:01.617Z,99.99
2017-06-01T03:42:01.906Z,99.99
2017-06-01T03:43:01.580Z,99.99
2017-06-01T03:44:01.563Z,99.99
2017-06-01T03:45:01.862Z,99.99
2017-06-01T03:46:01.848Z,99.99
2017-06-01T03:47:01.518Z,99.99
2017-06-01T03:48:01.821Z,99.99
2017-06-01T03:49:01.489Z,99.99
2017-06-01T03:50:01.791Z,99.99
2017-06-01T03:51:01.777Z,99.99
2017-06-01T03:52:01.447Z,99.99
2017-06-01T03:53:01.748Z,99.99
2017-06-01T03:54:01.748Z,99.99
2017-06-01T03:55:01.724Z,99.99
2017-06-01T03:56:01.703Z,99.99
2017-06-01T03:57:01.376Z,99.99
2017-06-01T03:58:01.680Z,99.99
2017-06-01T03:59:01.348Z,99.99
2017-06-01T04:00:01.652Z,99.99
2017-06-01T04:01:01.632Z,99.99
2017-06-01T04:02:01.620Z,99.99
2017-06-01T04:03:01.606Z,99.99
2017-06-01T04:04:01.278Z,99.99
2017-06-01T04:05:01.580Z,99.99
2017-06-01T04:06:01.568Z,99.99
2017-06-01T04:07:01.233Z,99.99
2017-06-01T04:08:01.221Z,99.99
2017-06-01T04:09:01.523Z,99.99
2017-06-01T04:10:01.504Z,99.99
2017-06-01T04:11:01.228Z,99.99
2017-06-01T04:12:01.475Z,99.99
2017-06-01T04:13:01.148Z,99.99
2017-06-01T04:14:01.450Z,99.99
2017-06-01T04:15:01.119Z,99.99
2017-06-01T04:16:01.420Z,99.99
2017-06-01T04:17:01.094Z,99.99
2017-06-01T04:18:01.394Z,99.99
2017-06-01T04:19:01.063Z,99.99
2017-06-01T04:20:01.364Z,99.99
2017-06-01T04:21:01.036Z,99.99
2017-06-01T04:22:01.023Z,99.99
2017-06-01T04:23:01.325Z,99.99
2017-06-01T04:24:00.995Z,99.99
2017-06-01T04:25:01.299Z,99.99
2017-06-01T04:26:00.965Z,99.99
2017-06-01T04:27:01.275Z,99.99
2017-06-01T04:28:01.252Z,99.99
2017-06-01T04:29:00.926Z,99.99
2017-06-01T04:30:00.911Z,99.99
2017-06-01T04:31:00.892Z,99.99
2017-06-01T04:32:01.192Z,99.99
2017-06-01T04:33:01.183Z,99.99
2017-06-01T04:34:01.166Z,99.99
2017-06-01T04:35:01.152Z,99.99
2017-06-01T04:36:00.826Z,99.99
2017-06-01T04:37:01.124Z,99.99
2017-06-01T04:38:01.113Z,99.99
2017-06-01T04:39:01.098Z,99.99
2017-06-01T04:40:01.090Z,99.99
2017-06-01T04:41:01.071Z,99.99
2017-06-01T04:42:00.760Z,99.99
2017-06-01T04:43:00.729Z,99.99
2017-06-01T04:44:01.033Z,99.99
2017-06-01T04:45:01.014Z,99.99
2017-06-01T04:46:00.997Z,99.99
2017-06-01T04:47:00.672Z,99.99
2017-06-01T04:48:00.973Z,99.99
2017-06-01T04:49:00.959Z,99.99
2017-06-01T04:50:00.629Z,99.99
2017-06-01T04:51:00.614Z,99.99
2017-06-01T04:52:00.643Z,99.99
2017-06-01T04:53:00.903Z,99.99
2017-06-01T04:54:00.574Z,99.99
2017-06-01T04:55:00.557Z,99.99
2017-06-01T04:56:00.862Z,99.99
2017-06-01T04:57:00.534Z,99.99
2017-06-01T04:58:00.833Z,99.99
2017-06-01T04:59:00.505Z,99.99
2017-06-01T05:00:00.497Z,99.99
2017-06-01T05:01:00.796Z,99.99
2017-06-01T05:02:00.467Z,99.99
2017-06-01T05:03:00.453Z,99.99
2017-06-01T05:04:00.441Z,99.99
2017-06-01T05:05:00.739Z,99.99
2017-06-01T05:06:00.413Z,99.99
2017-06-01T05:07:00.710Z,99.99
2017-06-01T05:08:00.709Z,99.99
2017-06-01T05:09:00.368Z,99.99
2017-06-01T05:10:00.682Z,99.99
2017-06-01T05:11:00.400Z,99.99
2017-06-01T05:12:00.650Z,99.99
2017-06-01T05:13:00.630Z,99.99
2017-06-01T05:14:00.307Z,99.99
2017-06-01T05:15:00.294Z,99.99
2017-06-01T05:16:00.591Z,99.99
2017-06-01T05:17:00.571Z,99.99
2017-06-01T05:18:00.561Z,99.99
2017-06-01T05:19:00.236Z,99.99
2017-06-01T05:20:00.539Z,99.99
2017-06-01T05:21:00.519Z,99.99
2017-06-01T05:22:00.191Z,99.99
2017-06-01T05:23:00.180Z,99.99
2017-06-01T05:24:00.167Z,99.99
2017-06-01T05:25:00.466Z,99.99
2017-06-01T05:26:00.455Z,99.99
2017-06-01T05:27:00.440Z,99.99
2017-06-01T05:28:00.427Z,99.99
2017-06-01T05:29:00.104Z,99.99
2017-06-01T05:30:00.090Z,99.99
2017-06-01T05:31:00.077Z,99.99
2017-06-01T05:32:00.374Z,99.99
2017-06-01T05:33:00.363Z,99.99
2017-06-01T05:34:00.353Z,99.99
2017-06-01T05:35:00.391Z,99.99
2017-06-01T05:36:00.324Z,99.99
2017-06-01T05:37:00.312Z,99.99
2017-06-01T05:37:59.983Z,99.99
2017-06-01T05:38:59.969Z,99.99
2017-06-01T05:39:59.957Z,99.99
2017-06-01T05:40:59.946Z,99.99
2017-06-01T05:42:00.248Z,99.99
2017-06-01T05:42:59.919Z,99.99
2017-06-01T05:44:00.222Z,99.99
2017-06-01T05:45:00.206Z,99.99
2017-06-01T05:46:00.196Z,99.99
2017-06-01T05:47:00.182Z,99.99
2017-06-01T05:48:00.167Z,99.99
2017-06-01T05:49:00.155Z,99.99
2017-06-01T05:49:59.829Z,99.99
2017-06-01T05:50:59.815Z,99.99
2017-06-01T05:52:00.117Z,99.99
2017-06-01T05:52:59.791Z,99.99
2017-06-01T05:53:59.778Z,99.99
2017-06-01T05:55:00.082Z,99.99
2017-06-01T05:56:00.067Z,99.99
2017-06-01T05:56:59.740Z,99.99
2017-06-01T05:58:00.044Z,99.99
2017-06-01T05:58:59.715Z,99.99
2017-06-01T06:00:00.015Z,99.99
2017-06-01T06:00:59.689Z,99.99
2017-06-01T06:01:59.994Z,99.99
2017-06-01T06:02:59.981Z,99.99
2017-06-01T06:03:59.653Z,99.99
2017-06-01T06:04:59.639Z,99.99
2017-06-01T06:05:59.940Z,99.99
2017-06-01T06:06:59.938Z,99.99
2017-06-01T06:07:59.600Z,99.99
2017-06-01T06:08:59.904Z,99.99
2017-06-01T06:09:59.574Z,99.99
2017-06-01T06:10:59.878Z,99.99
2017-06-01T06:11:59.557Z,99.99
2017-06-01T06:12:59.860Z,99.99
2017-06-01T06:13:59.848Z,99.99
2017-06-01T06:14:59.721Z,99.99
2017-06-01T06:15:59.825Z,99.99
2017-06-01T06:16:59.816Z,98.91
2017-06-01T06:17:59.807Z,96.66
2017-06-01T06:18:59.487Z,97.62
2017-06-01T06:19:59.783Z,99.99
2017-06-01T06:20:59.779Z,99.99
2017-06-01T06:21:59.762Z,99.99
2017-06-01T06:22:59.758Z,99.99
2017-06-01T06:23:59.745Z,99.99
2017-06-01T06:24:59.735Z,99.99
2017-06-01T06:25:59.724Z,99.99
2017-06-01T06:26:59.715Z,99.99
2017-06-01T06:27:59.391Z,99.99
2017-06-01T06:28:59.694Z,99.99
2017-06-01T06:29:59.683Z,99.99
2017-06-01T06:30:59.361Z,99.99
2017-06-01T06:31:59.662Z,99.99
2017-06-01T06:32:59.650Z,99.99
2017-06-01T06:33:59.344Z,99.99
2017-06-01T06:34:59.629Z,99.99
2017-06-01T06:35:59.620Z,99.99
2017-06-01T06:36:59.607Z,99.99
2017-06-01T06:37:59.285Z,99.99
2017-06-01T06:38:59.591Z,99.99
2017-06-01T06:39:59.579Z,99.99
2017-06-01T06:40:59.253Z,99.99
2017-06-01T06:41:59.557Z,99.99
2017-06-01T06:42:59.541Z,99.99
2017-06-01T06:43:59.217Z,99.99
2017-06-01T06:44:59.205Z,99.99
2017-06-01T06:45:59.510Z,99.99
2017-06-01T06:46:59.499Z,99.99
2017-06-01T06:47:59.490Z,99.99
2017-06-01T06:48:59.482Z,99.99
2017-06-01T06:49:59.469Z,99.99
2017-06-01T06:50:59.150Z,99.99
2017-06-01T06:51:59.451Z,99.99
2017-06-01T06:52:59.125Z,99.99
2017-06-01T06:53:59.429Z,99.99
2017-06-01T06:54:59.423Z,99.99
2017-06-01T06:55:59.097Z,99.99
2017-06-01T06:56:59.404Z,99.99
2017-06-01T06:57:59.081Z,99.99
2017-06-01T06:58:59.072Z,99.99
2017-06-01T06:59:59.380Z,99.99
2017-06-01T07:00:59.053Z,99.99
2017-06-01T07:01:59.361Z,99.99
2017-06-01T07:02:59.351Z,99.99
2017-06-01T07:03:59.342Z,99.99
2017-06-01T07:04:59.021Z,99.99
2017-06-01T07:05:59.325Z,99.99
2017-06-01T07:06:59.314Z,99.99
2017-06-01T07:07:59.311Z,99.99
2017-06-01T07:08:58.981Z,99.99
2017-06-01T07:09:58.972Z,99.99
2017-06-01T07:10:59.276Z,99.99
2017-06-01T07:11:59.272Z,99.99
2017-06-01T07:12:59.264Z,99.99
2017-06-01T07:13:59.256Z,99.99
2017-06-01T07:14:59.247Z,99.99
2017-06-01T07:15:59.239Z,99.99
2017-06-01T07:16:59.233Z,99.99
2017-06-01T07:17:59.220Z,99.99
2017-06-01T07:18:59.214Z,99.99
2017-06-01T07:19:58.895Z,99.99
2017-06-01T07:20:59.204Z,99.99
2017-06-01T07:21:58.879Z,99.99
2017-06-01T07:22:58.874Z,99.99
2017-06-01T07:23:59.182Z,99.99
2017-06-01T07:24:59.184Z,99.99
2017-06-01T07:25:58.853Z,99.99
2017-06-01T07:26:59.162Z,99.99
2017-06-01T07:27:59.168Z,99.99
2017-06-01T07:28:59.149Z,99.99
2017-06-01T07:29:59.143Z,99.99
2017-06-01T07:30:58.829Z,98.91
2017-06-01T07:31:58.819Z,90.73
2017-06-01T07:32:59.125Z,82.59
2017-06-01T07:33:58.858Z,77.51
2017-06-01T07:34:59.117Z,76.53
2017-06-01T07:35:58.802Z,74.35
2017-06-01T07:36:58.798Z,72.58
2017-06-01T07:37:58.792Z,70.78
2017-06-01T07:38:59.103Z,69.79
2017-06-01T07:39:59.103Z,67.21
2017-06-01T07:40:58.784Z,65.5
2017-06-01T07:41:58.777Z,64.17
2017-06-01T07:42:59.091Z,64.78
2017-06-01T07:43:59.086Z,63.36
2017-06-01T07:44:59.083Z,63.2
2017-06-01T07:45:58.766Z,61.45
2017-06-01T07:46:58.762Z,60.77
2017-06-01T07:47:58.764Z,60.28
2017-06-01T07:48:59.075Z,60.09
2017-06-01T07:49:59.073Z,60
2017-06-01T07:50:59.067Z,61.09
2017-06-01T07:51:59.072Z,60.74
2017-06-01T07:52:58.754Z,57.72
2017-06-01T07:53:59.063Z,56.65
2017-06-01T07:54:59.067Z,57.62
2017-06-01T07:55:58.746Z,57.92
2017-06-01T07:56:58.744Z,57.26
2017-06-01T07:57:59.062Z,56.87
2017-06-01T07:58:59.111Z,56.9
2017-06-01T07:59:59.058Z,54.89
2017-06-01T08:00:59.057Z,54.69
2017-06-01T08:01:59.063Z,54.62
2017-06-01T08:02:59.055Z,53.85
2017-06-01T08:03:58.798Z,53.85
2017-06-01T08:04:59.052Z,55.47
2017-06-01T08:05:59.054Z,53.52
2017-06-01T08:06:59.055Z,53.16
2017-06-01T08:07:58.740Z,51.24
2017-06-01T08:08:59.056Z,52.65
2017-06-01T08:09:58.736Z,53.52
2017-06-01T08:10:59.057Z,52.09
2017-06-01T08:11:59.088Z,52.6
2017-06-01T08:12:58.739Z,52.6
2017-06-01T08:13:59.056Z,52.24
2017-06-01T08:14:59.257Z,52.92
2017-06-01T08:15:59.082Z,49.63
2017-06-01T08:16:58.743Z,51.19
2017-06-01T08:17:59.064Z,50.21
2017-06-01T08:18:58.749Z,49.73
2017-06-01T08:19:59.080Z,49.56
2017-06-01T08:20:58.757Z,49.07
2017-06-01T08:21:59.063Z,50.7
2017-06-01T08:22:58.752Z,50.97
2017-06-01T08:23:59.068Z,49.83
2017-06-01T08:24:59.072Z,49.73
2017-06-01T08:25:59.073Z,50.9
2017-06-01T08:26:59.073Z,50.9
2017-06-01T08:27:59.076Z,51.31
2017-06-01T08:28:58.762Z,51.41
2017-06-01T08:29:58.765Z,50.46
2017-06-01T08:30:58.769Z,48.71
2017-06-01T08:31:58.770Z,50.04
2017-06-01T08:32:59.089Z,50.24
2017-06-01T08:33:58.770Z,50.04
2017-06-01T08:34:58.777Z,48.49
2017-06-01T08:35:58.774Z,49.27
2017-06-01T08:36:58.777Z,49.37
2017-06-01T08:37:59.094Z,49.85
2017-06-01T08:38:58.783Z,50.07
2017-06-01T08:39:59.097Z,50.07
2017-06-01T08:40:58.785Z,48.83
2017-06-01T08:41:59.101Z,48.34
2017-06-01T08:42:58.787Z,47.66
2017-06-01T08:43:58.793Z,47.75
2017-06-01T08:44:59.110Z,48.14
2017-06-01T08:45:59.112Z,48.71
2017-06-01T08:46:59.114Z,48.93
2017-06-01T08:47:58.800Z,48.73
2017-06-01T08:48:58.804Z,48.34
2017-06-01T08:49:59.125Z,49.37
2017-06-01T08:50:59.125Z,49.17
2017-06-01T08:51:59.128Z,49.29
2017-06-01T08:52:59.126Z,48.22
2017-06-01T08:53:59.130Z,51.29
2017-06-01T08:54:59.131Z,51.36
2017-06-01T08:55:58.818Z,53.94
2017-06-01T08:56:59.134Z,54.47
2017-06-01T08:57:59.139Z,56.77
2017-06-01T08:58:59.136Z,57.33
2017-06-01T08:59:59.136Z,58.86
2017-06-01T09:00:59.138Z,58.64
2017-06-01T09:01:58.830Z,58.25
2017-06-01T09:02:58.825Z,57.21
2017-06-01T09:03:59.138Z,56.5
2017-06-01T09:04:58.825Z,58.51
2017-06-01T09:05:59.138Z,60.42
2017-06-01T09:06:59.141Z,61.07
2017-06-01T09:07:58.823Z,62.43
2017-06-01T09:08:59.136Z,61.04
2017-06-01T09:09:58.819Z,62.27
2017-06-01T09:10:59.138Z,62.66
2017-06-01T09:11:59.137Z,64.01
2017-06-01T09:12:58.818Z,62.07
2017-06-01T09:13:59.131Z,62.37
2017-06-01T09:14:59.132Z,63.34
2017-06-01T09:15:59.131Z,66.08
2017-06-01T09:16:59.128Z,64.92
2017-06-01T09:17:59.127Z,64.43
2017-06-01T09:18:59.127Z,65.14
2017-06-01T09:19:59.125Z,63.59
2017-06-01T09:20:58.812Z,61.82
2017-06-01T09:21:58.808Z,61
2017-06-01T09:22:58.810Z,60.25
2017-06-01T09:23:58.812Z,59.12
2017-06-01T09:24:59.125Z,58.95
2017-06-01T09:25:58.813Z,57.82
2017-06-01T09:26:58.812Z,55.9
2017-06-01T09:27:59.128Z,57.75
2017-06-01T09:28:59.130Z,55.93
2017-06-01T09:29:58.818Z,54.5
2017-06-01T09:30:59.138Z,54.6
2017-06-01T09:31:58.826Z,55.52
2017-06-01T09:32:59.140Z,53.87
2017-06-01T09:33:59.149Z,51.46
2017-06-01T09:34:59.204Z,51.17
2017-06-01T09:35:58.837Z,51.63
2017-06-01T09:36:58.846Z,53.38
2017-06-01T09:37:59.162Z,53.7
2017-06-01T09:38:59.162Z,53.5
2017-06-01T09:39:59.159Z,51.68
2017-06-01T09:40:59.166Z,51.97
2017-06-01T09:41:59.178Z,52.34
2017-06-01T09:42:58.859Z,53.58
2017-06-01T09:43:59.176Z,54.52
2017-06-01T09:44:59.175Z,53.62
2017-06-01T09:45:59.196Z,55.51
2017-06-01T09:46:59.188Z,56.29
2017-06-01T09:47:59.190Z,54.74
2017-06-01T09:48:59.204Z,54.25
2017-06-01T09:49:59.193Z,57.07
2017-06-01T09:50:59.198Z,58.21
2017-06-01T09:51:59.201Z,59.86
2017-06-01T09:52:59.229Z,58.47
2017-06-01T09:53:58.891Z,57.82
2017-06-01T09:54:58.900Z,57.53
2017-06-01T09:55:59.214Z,55.78
2017-06-01T09:56:59.221Z,54.25
2017-06-01T09:57:59.220Z,54.93
2017-06-01T09:58:59.228Z,55.93
2017-06-01T09:59:59.228Z,55.9
2017-06-01T10:00:58.932Z,53.89
2017-06-01T10:01:59.235Z,54.66
2017-06-01T10:02:59.240Z,54.28
2017-06-01T10:03:59.243Z,54.66
2017-06-01T10:04:59.246Z,53.81
2017-06-01T10:05:58.936Z,54.33
2017-06-01T10:06:59.253Z,53.09
2017-06-01T10:07:59.259Z,53.7
2017-06-01T10:08:58.947Z,52.83
2017-06-01T10:09:58.950Z,51.58
2017-06-01T10:10:59.267Z,51.17
2017-06-01T10:11:59.272Z,52.58
2017-06-01T10:12:58.965Z,52.28
2017-06-01T10:13:58.972Z,52.75
2017-06-01T10:14:59.284Z,53.5
2017-06-01T10:15:58.974Z,55.9
2017-06-01T10:16:58.977Z,56.22
2017-06-01T10:17:59.296Z,54.4
2017-06-01T10:18:58.987Z,54.4
2017-06-01T10:19:58.990Z,55.62
2017-06-01T10:20:58.994Z,54.58
2017-06-01T10:21:58.998Z,54.77
2017-06-01T10:22:59.005Z,55.68
2017-06-01T10:23:59.322Z,53.66
2017-06-01T10:24:59.324Z,52.48
2017-06-01T10:25:59.014Z,51.21
2017-06-01T10:26:59.339Z,50.75
2017-06-01T10:27:59.023Z,50.26
2017-06-01T10:28:59.345Z,52.41
2017-06-01T10:29:59.037Z,52.12
2017-06-01T10:30:59.037Z,52.22
2017-06-01T10:31:59.354Z,50
2017-06-01T10:32:59.360Z,50.1
2017-06-01T10:33:59.051Z,49.12
2017-06-01T10:34:59.056Z,49.61
2017-06-01T10:35:59.058Z,49.9
2017-06-01T10:36:59.376Z,48.83
2017-06-01T10:37:59.383Z,51.04
2017-06-01T10:38:59.076Z,50.07
2017-06-01T10:39:59.392Z,51.21
2017-06-01T10:40:59.396Z,51.7
2017-06-01T10:41:59.398Z,52.44
2017-06-01T10:42:59.431Z,51.95
2017-06-01T10:43:59.408Z,53.11
2017-06-01T10:44:59.101Z,52.44
2017-06-01T10:45:59.468Z,53.92
2017-06-01T10:46:59.419Z,51.68
2017-06-01T10:47:59.111Z,49.85
2017-06-01T10:48:59.429Z,50.34
2017-06-01T10:49:59.442Z,54.09
2017-06-01T10:50:59.438Z,52.46
2017-06-01T10:51:59.441Z,51.48
2017-06-01T10:52:59.447Z,52.48
2017-06-01T10:53:59.456Z,50.95
2017-06-01T10:54:59.456Z,51.82
2017-06-01T10:55:59.460Z,50.07
2017-06-01T10:56:59.467Z,50.85
2017-06-01T10:57:59.153Z,51.73
2017-06-01T10:58:59.157Z,52.41
2017-06-01T10:59:59.478Z,53.81
2017-06-01T11:00:59.166Z,50.81
2017-06-01T11:01:59.487Z,51.98
2017-06-01T11:02:59.183Z,52.17
2017-06-01T11:03:59.495Z,51.42
2017-06-01T11:04:59.498Z,49.87
2017-06-01T11:05:59.503Z,51.44
2017-06-01T11:06:59.506Z,51.46
2017-06-01T11:07:59.200Z,49.99
2017-06-01T11:08:59.515Z,48.63
2017-06-01T11:09:59.521Z,50.1
2017-06-01T11:10:59.526Z,49.65
2017-06-01T11:11:59.527Z,51.59
2017-06-01T11:12:59.532Z,49.92
2017-06-01T11:13:59.538Z,48.97
2017-06-01T11:14:59.540Z,50.51
2017-06-01T11:15:59.232Z,51.56
2017-06-01T11:16:59.239Z,51.59
2017-06-01T11:17:59.241Z,49.71
2017-06-01T11:18:59.561Z,51.76
2017-06-01T11:19:59.565Z,52.54
2017-06-01T11:20:59.570Z,52.05
2017-06-01T11:21:59.596Z,51.78
2017-06-01T11:22:59.576Z,51.2
2017-06-01T11:23:59.585Z,50.02
2017-06-01T11:24:59.592Z,52.95
2017-06-01T11:25:59.283Z,51.39
2017-06-01T11:26:59.598Z,52.2
2017-06-01T11:27:59.311Z,49.58
2017-06-01T11:28:59.609Z,52.61
2017-06-01T11:29:59.614Z,48.24
2017-06-01T11:30:59.621Z,48.04
2017-06-01T11:31:59.309Z,50.66
2017-06-01T11:32:59.630Z,50.49
2017-06-01T11:33:59.632Z,49.8
2017-06-01T11:34:59.638Z,50.12
2017-06-01T11:35:59.652Z,50.71
2017-06-01T11:36:59.652Z,50.93
2017-06-01T11:37:59.342Z,48.19
2017-06-01T11:38:59.662Z,50.34
2017-06-01T11:39:59.350Z,50.24
2017-06-01T11:40:59.357Z,49.16
2017-06-01T11:41:59.360Z,49.95
2017-06-01T11:42:59.367Z,47.5
2017-06-01T11:43:59.685Z,46.59
2017-06-01T11:44:59.372Z,50.02
2017-06-01T11:45:59.378Z,49.14
2017-06-01T11:46:59.434Z,48.07
2017-06-01T11:47:59.386Z,49.85
2017-06-01T11:48:59.391Z,50.15
2017-06-01T11:49:59.399Z,49.36
2017-06-01T11:50:59.402Z,50.12
2017-06-01T11:51:59.409Z,49.95
2017-06-01T11:52:59.724Z,50.24
2017-06-01T11:53:59.418Z,48.38
2017-06-01T11:54:59.420Z,51.98
2017-06-01T11:55:59.427Z,50.51
2017-06-01T11:56:59.747Z,51.46
2017-06-01T11:57:59.760Z,48.07
2017-06-01T11:58:59.446Z,50.02
2017-06-01T11:59:59.446Z,49.14
2017-06-01T12:00:59.452Z,48.77
2017-06-01T12:01:59.770Z,48.28
2017-06-01T12:02:59.773Z,48.09
2017-06-01T12:03:59.468Z,49.36
2017-06-01T12:04:59.782Z,50.04
2017-06-01T12:05:59.476Z,50.04
2017-06-01T12:06:59.528Z,49.46
2017-06-01T12:07:59.485Z,50.27
2017-06-01T12:08:59.803Z,49.68
2017-06-01T12:09:59.494Z,49.38
2017-06-01T12:10:59.502Z,47.74
2017-06-01T12:11:59.817Z,46.76
2017-06-01T12:12:59.511Z,47.84
2017-06-01T12:13:59.518Z,46.76
2017-06-01T12:14:59.723Z,50.2
2017-06-01T12:15:59.852Z,47.06
2017-06-01T12:16:59.533Z,47.84
2017-06-01T12:17:59.848Z,45.68
2017-06-01T12:18:59.854Z,46.05
2017-06-01T12:19:59.861Z,44.88
2017-06-01T12:20:59.867Z,46.64
2017-06-01T12:21:59.869Z,48.3
2017-06-01T12:22:59.562Z,47.52
2017-06-01T12:23:59.877Z,48.3
2017-06-01T12:24:59.568Z,46.27
2017-06-01T12:25:59.573Z,47.72
2017-06-01T12:26:59.580Z,47.52
2017-06-01T12:27:59.579Z,50.56
2017-06-01T12:28:59.585Z,49.77
2017-06-01T12:29:59.591Z,47.64
2017-06-01T12:30:59.912Z,47.16
2017-06-01T12:31:59.648Z,47.16
2017-06-01T12:32:59.604Z,46.44
2017-06-01T12:33:59.924Z,47.72
2017-06-01T12:34:59.613Z,47.03
2017-06-01T12:35:59.617Z,45.17
2017-06-01T12:36:59.623Z,47.79
2017-06-01T12:37:59.940Z,47.28
2017-06-01T12:38:59.947Z,51.29
2017-06-01T12:39:59.950Z,51
2017-06-01T12:40:59.959Z,49.85
2017-06-01T12:41:59.956Z,49.77
2017-06-01T12:42:59.648Z,47.72
2017-06-01T12:43:59.963Z,47.81
2017-06-01T12:44:59.970Z,47.16
2017-06-01T12:45:59.976Z,46.94
2017-06-01T12:46:59.666Z,44.78
2017-06-01T12:47:59.983Z,44.93
2017-06-01T12:48:59.994Z,44.85
2017-06-01T12:49:59.992Z,46.33
2017-06-01T12:50:59.997Z,46.03
2017-06-01T12:51:59.684Z,45.25
2017-06-01T12:52:59.691Z,48.24
2017-06-01T12:53:59.697Z,47.65